Home > Products > Valid Products > TAF

000
FTUS45 KVEF 301100
TAFDAG
TAF
KDAG 301120Z 3012/3112 29011KT P6SM FEW150 BKN250
     FM310100 25014KT P6SM SCT150 BKN250=



000
FTUS45 KVEF 301100
TAFBIH
TAF
KBIH 301120Z 3012/3112 33007KT P6SM VCSH SCT080 OVC120
      TEMPO 3012/3016 -SHRA BKN080
     FM301900 26008KT P6SM VCTS SCT080CB OVC120
     FM310300 32006KT P6SM SCT080 BKN120=



000
FTUS45 KVEF 301100
TAFVGT
TAF
KVGT 301120Z 3012/3112 34008KT P6SM SCT250
     FM301900 VRB05KT P6SM SCT110 SCT250
     FM302300 30009KT P6SM SCT110 BKN250=



000
FTUS45 KVEF 301100
TAFLAS
TAF
KLAS 301120Z 3012/3112 19006KT P6SM SCT250
     FM301500 34006KT P6SM SCT250
     FM301900 08007KT P6SM SCT110 SCT250
     FM310100 24009KT P6SM SCT110 BKN250=



000
FTUS45 KVEF 301100
TAFEED
TAF
KEED 301120Z 3012/3112 VRB05KT P6SM SCT250
     FM302100 19008KT P6SM SCT250
     FM310300 24008KT P6SM FEW150 BKN250=



000
FTUS45 KVEF 301100
TAFLAS
TAF
KLAS 301120Z 3012/3112 19006KT P6SM SCT250
     FM301500 34006KT P6SM SCT250
     FM301900 08007KT P6SM SCT110 SCT250
     FM310100 24009KT P6SM SCT110 BKN250=



000
FTUS45 KVEF 300900 AAA
TAFLAS
TAF AMD
KLAS 300947Z 3010/3106 24007KT P6SM SCT250
     FM301500 VRB05KT P6SM SCT250
     FM301900 10006KT P6SM SCT110 BKN250
     FM302300 24009KT P6SM SCT100 BKN250=



000
FTUS45 KVEF 300900 AAA
TAFLAS
TAF AMD
KLAS 300947Z 3010/3106 24007KT P6SM SCT250
     FM301500 VRB05KT P6SM SCT250
     FM301900 10006KT P6SM SCT110 BKN250
     FM302300 24009KT P6SM SCT100 BKN250=



000
FTUS45 KVEF 300500
TAFLAS
TAF
KLAS 300531Z 3006/3106 24007KT P6SM FEW110 BKN250
     FM301500 VRB05KT P6SM FEW110 BKN250
     FM301900 10006KT P6SM SCT110 BKN250
     FM302300 24009KT P6SM SCT100 BKN250=



000
FTUS45 KVEF 300500
TAFBIH
TAF
KBIH 300531Z 3006/3106 36007KT P6SM SCT110 BKN200
     FM301800 VRB05KT P6SM BKN110 BKN200=



000
FTUS45 KVEF 300500
TAFLAS
TAF
KLAS 300531Z 3006/3106 24007KT P6SM FEW110 BKN250
     FM301500 VRB05KT P6SM FEW110 BKN250
     FM301900 10006KT P6SM SCT110 BKN250
     FM302300 24009KT P6SM SCT100 BKN250=



000
FTUS45 KVEF 300500
TAFVGT
TAF
KVGT 300531Z 3006/3106 32006KT P6SM FEW110 BKN250
     FM300800 VRB05KT P6SM FEW110 BKN250
     FM301900 13006KT P6SM SCT110 BKN250
     FM302100 30009KT P6SM SCT110 BKN250=



000
FTUS45 KVEF 300500
TAFDAG
TAF
KDAG 300531Z 3006/3106 25016KT P6SM BKN250
     FM300900 28009KT P6SM BKN250
     FM301800 31009KT P6SM BKN250=



000
FTUS45 KVEF 300500
TAFEED
TAF
KEED 300531Z 3006/3106 24008KT P6SM BKN250
     FM301500 VRB05KT P6SM FEW120 BKN250
     FM302200 24012KT P6SM FEW120 BKN250=



000
FTUS45 KVEF 300300 AAB
TAFBIH
TAF AMD
KBIH 300301Z 3003/3024 34007KT P6SM SCT110 BKN250
     FM301800 VRB05KT P6SM BKN110 BKN250=



000
FTUS45 KVEF 300200 AAA
TAFLAS
TAF AMD
KLAS 300255Z 3003/3024 24007KT P6SM FEW110 BKN250
     FM301500 VRB05KT P6SM BKN250
     FM301900 10005KT P6SM SCT110 BKN250
     FM302200 24009KT P6SM SCT100 BKN250=



000
FTUS45 KVEF 300200 AAA
TAFLAS
TAF AMD
KLAS 300255Z 3003/3024 24007KT P6SM FEW110 BKN250
     FM301500 VRB05KT P6SM BKN250
     FM301900 10005KT P6SM SCT110 BKN250
     FM302200 24009KT P6SM SCT100 BKN250=



000
FTUS45 KVEF 300100 AAA
TAFBIH
TAF AMD
KBIH 300125Z 3001/3024 31010G20KT P6SM BKN120
     FM300400 34007KT P6SM SCT120 BKN250
     FM301800 VRB05KT P6SM BKN120 BKN250=



000
FTUS45 KVEF 292300
TAFBIH
TAF
KBIH 292320Z 3000/3024 VRB04KT P6SM BKN120
     FM300400 34007KT P6SM SCT120 BKN250
     FM301800 VRB05KT P6SM BKN120 BKN250=



000
FTUS45 KVEF 292300
TAFLAS
TAF
KLAS 292320Z 3000/3024 24010G16KT P6SM FEW090 SCT120 BKN250
     FM300200 25007KT P6SM FEW110 BKN250
     FM301900 10005KT P6SM SCT110 BKN250=



000
FTUS45 KVEF 292300
TAFDAG
TAF
KDAG 292320Z 3000/3024 27014KT P6SM BKN250
     FM301800 31009KT P6SM BKN250=



000
FTUS45 KVEF 292300
TAFEED
TAF
KEED 292320Z 3000/3024 22010KT P6SM FEW120 SCT250
     FM300400 24008KT P6SM BKN250
     FM301800 VRB05KT P6SM FEW120 BKN250=



000
FTUS45 KVEF 292300
TAFLAS
TAF
KLAS 292320Z 3000/3024 24010G16KT P6SM FEW090 SCT120 BKN250
     FM300200 25007KT P6SM FEW110 BKN250
     FM301900 10005KT P6SM SCT110 BKN250=



000
FTUS45 KVEF 292300
TAFVGT
TAF
KVGT 292320Z 3000/3024 VRB05KT P6SM SCT120 BKN250
     FM301900 13006KT P6SM SCT110 BKN250=



000
FTUS45 KVEF 292000 AAA
TAFLAS
TAF AMD
KLAS 292012Z 2920/3018 21008G16KT P6SM SCT100 SCT150
     FM300100 25007KT P6SM SCT100 SCT150
     FM300600 30007KT P6SM FEW110 SCT250=



000
FTUS45 KVEF 292000 AAA
TAFLAS
TAF AMD
KLAS 292012Z 2920/3018 21008G16KT P6SM SCT100 SCT150
     FM300100 25007KT P6SM SCT100 SCT150
     FM300600 30007KT P6SM FEW110 SCT250=



000
FTUS45 KVEF 291700
TAFBIH
TAF
KBIH 291738Z 2918/3018 31006KT P6SM BKN120
     FM292200 34012KT P6SM VCSH BKN100
     FM300400 35010KT P6SM BKN120=



000
FTUS45 KVEF 291700
TAFLAS
TAF
KLAS 291738Z 2918/3018 35005KT P6SM FEW100 SCT150
     FM292000 06005KT P6SM SCT100 SCT150
     FM292200 32007KT P6SM SCT100 SCT150
     FM300600 30007KT P6SM FEW110 SCT250=



000
FTUS45 KVEF 291700
TAFLAS
TAF
KLAS 291738Z 2918/3018 35005KT P6SM FEW100 SCT150
     FM292000 06005KT P6SM SCT100 SCT150
     FM292200 32007KT P6SM SCT100 SCT150
     FM300600 30007KT P6SM FEW110 SCT250=



000
FTUS45 KVEF 291700
TAFEED
TAF
KEED 291738Z 2918/3018 VRB05KT P6SM SKC
     FM292000 22011KT P6SM SCT250
     FM300400 24008KT P6SM SCT250=



000
FTUS45 KVEF 291700
TAFDAG
TAF
KDAG 291738Z 2918/3018 32008KT P6SM SCT250
     FM300000 26014KT P6SM SCT250=



000
FTUS45 KVEF 291700
TAFVGT
TAF
KVGT 291738Z 2918/3018 36008KT P6SM SCT100 SCT150
     FM292100 31009KT P6SM SCT100 SCT250
     FM300600 VRB05KT P6SM FEW110 SCT250=



000
FTUS45 KVEF 291500 AAB
TAFLAS
TAF AMD
KLAS 291557Z 2916/3012 VRB04KT P6SM FEW110 SCT150
     FM291630 35010KT P6SM FEW100 SCT150
     FM292000 05006KT P6SM FEW110 SCT150
     FM292300 33009KT P6SM SCT110 SCT250
     FM300600 30007KT P6SM FEW110 SCT250=



000
FTUS45 KVEF 291500 AAB
TAFLAS
TAF AMD
KLAS 291557Z 2916/3012 VRB04KT P6SM FEW110 SCT150
     FM291630 35010KT P6SM FEW100 SCT150
     FM292000 05006KT P6SM FEW110 SCT150
     FM292300 33009KT P6SM SCT110 SCT250
     FM300600 30007KT P6SM FEW110 SCT250=



000
FTUS45 KVEF 291500 AAA
TAFVGT
TAF AMD
KVGT 291557Z 2916/3012 33012KT P6SM SCT100 SCT150
     FM292100 31009KT P6SM SCT100 SCT250
     FM300600 VRB05KT P6SM FEW110 SCT250=



000
FTUS45 KVEF 291400 AAA
TAFLAS
TAF AMD
KLAS 291455Z 2915/3012 VRB04KT P6SM FEW110 SCT150
     FM291800 05006KT P6SM FEW110 SCT150
     FM292300 33009KT P6SM SCT110 SCT250
     FM300600 30007KT P6SM FEW110 SCT250=



000
FTUS45 KVEF 291100
TAFVGT
TAF
KVGT 291138Z 2912/3012 35006KT P6SM FEW110 SCT150
     FM291700 08008KT P6SM FEW110 SCT150
     FM292100 31009KT P6SM SCT110 SCT250
     FM300600 VRB05KT P6SM FEW110 SCT250=



000
FTUS45 KVEF 291100
TAFBIH
TAF
KBIH 291138Z 2912/3012 VRB05KT P6SM VCSH OVC100
      TEMPO 2912/2916 -SHRA
     FM291600 34007KT P6SM BKN100
     FM292200 34012KT P6SM VCSH BKN100
     FM300400 35010KT P6SM BKN120=



000
FTUS45 KVEF 291100
TAFLAS
TAF
KLAS 291138Z 2912/3012 18008KT P6SM FEW110 SCT150
     FM291700 05006KT P6SM FEW110 SCT150
     FM292300 33009KT P6SM SCT110 SCT250
     FM300600 30007KT P6SM FEW110 SCT250=



000
FTUS45 KVEF 291100
TAFLAS
TAF
KLAS 291138Z 2912/3012 18008KT P6SM FEW110 SCT150
     FM291700 05006KT P6SM FEW110 SCT150
     FM292300 33009KT P6SM SCT110 SCT250
     FM300600 30007KT P6SM FEW110 SCT250=



000
FTUS45 KVEF 291100
TAFEED
TAF
KEED 291138Z 2912/3012 VRB05KT P6SM SKC
     FM292000 22011KT P6SM SCT250
     FM300400 24008KT P6SM SCT250=



000
FTUS45 KVEF 291100
TAFDAG
TAF
KDAG 291138Z 2912/3012 29009KT P6SM SCT250
     FM292200 26014KT P6SM SCT250=



000
FTUS45 KVEF 291000 AAA
TAFBIH
TAF AMD
KBIH 291007Z 2910/3006 VRB05KT P6SM VCSH BKN100
      TEMPO 2910/2912 -SHRA
     FM291200 VRB05KT P6SM BKN120
     FM291700 34011KT P6SM SCT100=



000
FTUS45 KVEF 290900 AAA
TAFLAS
TAF AMD
KLAS 290902Z 2909/3006 18008KT P6SM SCT100 BKN250
     FM291500 12005KT P6SM SCT200
     FM292300 18010KT P6SM SCT120=



000
FTUS45 KVEF 290900 AAA
TAFLAS
TAF AMD
KLAS 290902Z 2909/3006 18008KT P6SM SCT100 BKN250
     FM291500 12005KT P6SM SCT200
     FM292300 18010KT P6SM SCT120=



000
FTUS45 KVEF 290500
TAFLAS
TAF
KLAS 290535Z 2906/3006 18008KT P6SM FEW140 BKN200
     FM291500 12005KT P6SM SCT200
     FM292300 18010KT P6SM SCT120=



000
FTUS45 KVEF 290500
TAFBIH
TAF
KBIH 290535Z 2906/3006 VRB05KT P6SM VCSH BKN100
     FM290800 VRB05KT P6SM BKN150
     FM291700 34011KT P6SM SCT100=



000
FTUS45 KVEF 290500
TAFLAS
TAF
KLAS 290535Z 2906/3006 18008KT P6SM FEW140 BKN200
     FM291500 12005KT P6SM SCT200
     FM292300 18010KT P6SM SCT120=



000
FTUS45 KVEF 290500
TAFEED
TAF
KEED 290535Z 2906/3006 28005KT P6SM SCT200
     FM291300 VRB05KT P6SM FEW150
     FM292000 22011KT P6SM SCT150=



000
FTUS45 KVEF 290500
TAFDAG
TAF
KDAG 290535Z 2906/3006 27009KT P6SM SCT200
     FM291800 25012KT P6SM SCT150=



000
FTUS45 KVEF 290500
TAFVGT
TAF
KVGT 290535Z 2906/3006 16006KT P6SM FEW140 BKN200
     FM291000 VRB05KT P6SM SCT200
     FM291700 12010KT P6SM SCT120
     FM300000 18009KT P6SM SCT120=



000
FTUS45 KVEF 290300 AAC
TAFEED
TAF AMD
KEED 290325Z 2903/2924 27015KT P6SM VCTS SCT100CB BKN150
     FM290500 27009KT P6SM SCT120 BKN200
     FM291300 VRB05KT P6SM SCT150
     FM292000 22011KT P6SM SCT150=



000
FTUS45 KVEF 290200 AAA
TAFLAS
TAF AMD
KLAS 290253Z 2903/2924 19009KT P6SM SCT140 BKN200
     FM291500 VRB05KT P6SM SCT200
     FM292200 18010KT P6SM SCT120=



000
FTUS45 KVEF 290200 AAA
TAFLAS
TAF AMD
KLAS 290253Z 2903/2924 19009KT P6SM SCT140 BKN200
     FM291500 VRB05KT P6SM SCT200
     FM292200 18010KT P6SM SCT120=



000
FTUS45 KVEF 290200 AAB
TAFEED
TAF AMD
KEED 290225Z 2902/2924 36015KT P6SM VCTS FEW100CB SCT150 BKN200
      TEMPO 2902/2904 25020G30KT 2SM TSRA BKN090CB
     FM290500 27011KT P6SM SCT120
     FM291300 VRB05KT P6SM SCT150
     FM292000 22011KT P6SM SCT150=



000
FTUS45 KVEF 290200 AAA
TAFVGT
TAF AMD
KVGT 290222Z 2902/2924 17010KT P6SM SCT110 BKN150
     FM291000 VRB05KT P6SM SCT120
     FM291700 12010KT P6SM SCT120=



000
FTUS45 KVEF 290100 AAA
TAFEED
TAF AMD
KEED 290126Z 2901/2924 20011KT P6SM SCT100 BKN200
     FM290200 35012G25KT P6SM VCTS FEW100CB SCT150 BKN200
     FM290400 27011KT P6SM SCT120
     FM291300 VRB05KT P6SM SCT150
     FM292000 22011KT P6SM SCT150=



000
FTUS45 KVEF 282300
TAFEED
TAF
KEED 282338Z 2900/2924 20011KT P6SM SCT100 BKN200
     FM290300 23007KT P6SM FEW100 BKN200
     FM291300 VRB05KT P6SM SCT150
     FM292000 22011KT P6SM SCT150=



000
FTUS45 KVEF 282300
TAFDAG
TAF
KDAG 282338Z 2900/2924 25012G24KT P6SM VCTS FEW080CB SCT100 BKN150
     FM290300 27013KT P6SM SCT120 BKN200
     FM291800 25012KT P6SM SCT150=



000
FTUS45 KVEF 282300
TAFVGT
TAF
KVGT 282338Z 2900/2924 36012G24KT P6SM VCTS FEW080CB BKN100
     FM290200 30010KT P6SM SCT110 BKN150
     FM291000 VRB05KT P6SM SCT120
     FM291700 12010KT P6SM SCT120=



000
FTUS45 KVEF 282300
TAFBIH
TAF
KBIH 282338Z 2900/2924 35009KT P6SM -SHRA VCTS SCT070CB BKN100
     FM290200 16009KT P6SM VCSH BKN100 OVC150
     FM291000 VRB05KT P6SM BKN100
     FM291700 16010G20KT P6SM SCT090=



000
FTUS45 KVEF 282300
TAFLAS
TAF
KLAS 282338Z 2900/2924 18010KT P6SM VCTS FEW080CB BKN100
     FM290200 19010KT P6SM SCT110 BKN150
     FM291500 VRB05KT P6SM SCT120
     FM292200 18010KT P6SM SCT120=



000
FTUS45 KVEF 282300
TAFLAS
TAF
KLAS 282338Z 2900/2924 18010KT P6SM VCTS FEW080CB BKN100
     FM290200 19010KT P6SM SCT110 BKN150
     FM291500 VRB05KT P6SM SCT120
     FM292200 18010KT P6SM SCT120=



000
FTUS45 KVEF 282000 AAA
TAFLAS
TAF AMD
KLAS 282050Z 2821/2918 02006KT P6SM SCT100 BKN150
     FM282200 18010KT P6SM SCT100 BKN150
      TEMPO 2822/2901 VRB20G35KT 4SM TSRA BKN080CB OVC150
     FM290200 18010KT P6SM SCT100 BKN150=



000
FTUS45 KVEF 281900 AAB
TAFBIH
TAF AMD
KBIH 281941Z 2820/2918 VRB06KT P6SM VCTS SCT070CB BKN110
      TEMPO 2820/2824 VRB20G30KT 4SM TSRA SCT040 BKN060CB
     FM290200 16007KT P6SM VCSH BKN100 OVC150=



000
FTUS45 KVEF 281800 AAA
TAFBIH
TAF AMD
KBIH 281813Z 2818/2918 14010G18KT P6SM VCTS SCT080CB OVC140
     FM282000 16010G18KT P6SM SCT080 BKN140
      TEMPO 2821/2824 VRB20G30KT 4SM TSRA BKN060CB
     FM290200 16007KT P6SM VCSH BKN100 OVC150=



000
FTUS45 KVEF 281700
TAFLAS
TAF
KLAS 281738Z 2818/2918 10005KT P6SM FEW100 SCT150 BKN200
     FM282000 18010KT P6SM SCT100 BKN150
      TEMPO 2822/2901 VRB20G35KT 4SM TSRA BKN080CB
     FM290200 18010KT P6SM SCT100 BKN150=



000
FTUS45 KVEF 281700
TAFEED
TAF
KEED 281738Z 2818/2918 VRB06KT P6SM SCT100 BKN200
     FM282200 19011KT P6SM SCT100 BKN200
     FM290300 23007KT P6SM FEW100 BKN200=



000
FTUS45 KVEF 281700
TAFVGT
TAF
KVGT 281738Z 2818/2918 06005KT P6SM FEW100 SCT150 BKN200
     FM281900 19010KT P6SM SCT100 BKN150
      TEMPO 2822/2901 VRB20G35KT 4SM TSRA BKN080CB
     FM290200 04008KT P6SM SCT100 BKN150=



000
FTUS45 KVEF 281700
TAFDAG
TAF
KDAG 281738Z 2818/2918 31010KT P6SM SCT100 SCT140 BKN200
     FM290100 24013KT P6SM SCT140 BKN200=



000
FTUS45 KVEF 281700
TAFLAS
TAF
KLAS 281738Z 2818/2918 10005KT P6SM FEW100 SCT150 BKN200
     FM282000 18010KT P6SM SCT100 BKN150
      TEMPO 2822/2901 VRB20G35KT 4SM TSRA BKN080CB
     FM290200 18010KT P6SM SCT100 BKN150=



000
FTUS45 KVEF 281700
TAFBIH
TAF
KBIH 281738Z 2818/2918 16010KT P6SM SCT080 OVC140
     FM282000 16010G18KT P6SM SCT080 BKN140
      TEMPO 2821/2824 VRB20G30KT 4SM TSRA BKN060CB
     FM290200 16007KT P6SM VCSH BKN100 OVC150=



000
FTUS45 KVEF 281600 AAC
TAFLAS
TAF AMD
KLAS 281610Z 2816/2912 04010KT P6SM FEW100 SCT150 BKN200
     FM281800 VRB04KT P6SM FEW100 SCT150 BKN200
     FM281900 18010KT P6SM SCT100 BKN150
      TEMPO 2822/2901 VRB20G35KT 4SM TSRA BKN080CB
     FM290200 18010KT P6SM SCT100 BKN150=



000
FTUS45 KVEF 281600 AAC
TAFLAS
TAF AMD
KLAS 281610Z 2816/2912 04010KT P6SM FEW100 SCT150 BKN200
     FM281800 VRB04KT P6SM FEW100 SCT150 BKN200
     FM281900 18010KT P6SM SCT100 BKN150
      TEMPO 2822/2901 VRB20G35KT 4SM TSRA BKN080CB
     FM290200 18010KT P6SM SCT100 BKN150=



000
FTUS45 KVEF 281500 AAB
TAFLAS
TAF AMD
KLAS 281536Z 2816/2912 02010KT P6SM SCT100 BKN150 BKN200
     FM281630 VRB04KT P6SM FEW100 SCT150 BKN200
     FM281900 18010KT P6SM SCT100 BKN150
      TEMPO 2822/2901 VRB20G35KT 4SM TSRA BKN080CB
     FM290200 18010KT P6SM SCT100 BKN150=



000
FTUS45 KVEF 281500 AAB
TAFLAS
TAF AMD
KLAS 281536Z 2816/2912 02010KT P6SM SCT100 BKN150 BKN200
     FM281630 VRB04KT P6SM FEW100 SCT150 BKN200
     FM281900 18010KT P6SM SCT100 BKN150
      TEMPO 2822/2901 VRB20G35KT 4SM TSRA BKN080CB
     FM290200 18010KT P6SM SCT100 BKN150=



000
FTUS45 KVEF 281400 AAA
TAFLAS
TAF AMD
KLAS 281454Z 2815/2912 18005KT P6SM SCT100 BKN150 BKN200
     FM281900 18010KT P6SM SCT100 BKN150
      TEMPO 2822/2901 VRB20G35KT 4SM TSRA BKN080CB
     FM290200 18010KT P6SM SCT100 BKN150=



000
FTUS45 KVEF 281400 AAA
TAFLAS
TAF AMD
KLAS 281454Z 2815/2912 18005KT P6SM SCT100 BKN150 BKN200
     FM281900 18010KT P6SM SCT100 BKN150
      TEMPO 2822/2901 VRB20G35KT 4SM TSRA BKN080CB
     FM290200 18010KT P6SM SCT100 BKN150=



000
FTUS45 KVEF 281100
TAFDAG
TAF
KDAG 281138Z 2812/2912 24008KT P6SM VCSH SCT120 BKN140
     FM281800 31010KT P6SM SCT100 SCT140 BKN200
     FM290100 24013KT P6SM SCT140 BKN200=



000
FTUS45 KVEF 281100
TAFBIH
TAF
KBIH 281138Z 2812/2912 VRB05KT P6SM VCSH SCT100 BKN140
     FM281800 16011KT P6SM VCTS SCT080CB OVC140
      TEMPO 2820/2824 VRB20G30KT 4SM TSRA BKN060CB
     FM290200 16007KT P6SM VCSH BKN100 OVC150=



000
FTUS45 KVEF 281100
TAFLAS
TAF
KLAS 281138Z 2812/2912 21008KT P6SM FEW100 BKN150 BKN200
     FM281900 18010KT P6SM VCTS SCT100CB BKN150
      TEMPO 2821/2901 VRB20G35KT 4SM TSRA BKN080CB
     FM290200 18010KT P6SM SCT100 BKN150=



000
FTUS45 KVEF 281100
TAFVGT
TAF
KVGT 281138Z 2812/2912 06005KT P6SM FEW100 BKN150 BKN200
     FM281900 19010KT P6SM VCTS SCT100CB BKN150
      TEMPO 2821/2901 VRB20G35KT 4SM TSRA BKN080CB
     FM290200 04008KT P6SM SCT100 BKN150=



000
FTUS45 KVEF 281100
TAFLAS
TAF
KLAS 281138Z 2812/2912 21008KT P6SM FEW100 BKN150 BKN200
     FM281900 18010KT P6SM VCTS SCT100CB BKN150
      TEMPO 2821/2901 VRB20G35KT 4SM TSRA BKN080CB
     FM290200 18010KT P6SM SCT100 BKN150=



000
FTUS45 KVEF 281100
TAFEED
TAF
KEED 281138Z 2812/2912 VRB06KT P6SM SCT100 BKN200
     FM282200 19011KT P6SM VCTS SCT100CB BKN200
     FM290300 23007KT P6SM FEW100 BKN200=



000
FTUS45 KVEF 280800 AAA
TAFLAS
TAF AMD
KLAS 280852Z 2809/2906 18008KT P6SM VCTS SCT080CB BKN150
      TEMPO 2809/2812 15015G25KT TSRA BKN060CB
     FM281200 VRB05KT P6SM SCT080 BKN150
     FM281900 18010KT P6SM VCTS SCT100CB=



000
FTUS45 KVEF 280800 AAA
TAFVGT
TAF AMD
KVGT 280852Z 2809/2906 22008KT P6SM VCTS SCT080CB BKN150
      TEMPO 2809/2812 15015G25KT TSRA BKN060CB
     FM281200 VRB06KT P6SM SCT080 BKN150
     FM281900 15010KT P6SM VCTS SCT100CB=



000
FTUS45 KVEF 280800 AAA
TAFLAS
TAF AMD
KLAS 280852Z 2809/2906 18008KT P6SM VCTS SCT080CB BKN150
      TEMPO 2809/2812 15015G25KT TSRA BKN060CB
     FM281200 VRB05KT P6SM SCT080 BKN150
     FM281900 18010KT P6SM VCTS SCT100CB=



000
FTUS45 KVEF 280500
TAFEED
TAF
KEED 280535Z 2806/2906 24009KT P6SM SCT150
     FM281200 VRB06KT P6SM SCT150
     FM281800 19011KT P6SM VCTS SCT120CB=



000
FTUS45 KVEF 280500
TAFBIH
TAF
KBIH 280535Z 2806/2906 05008KT P6SM VCSH BKN110
     FM280800 32006KT P6SM BKN110
     FM282100 25011KT P6SM VCSH BKN110=



000
FTUS45 KVEF 280500
TAFLAS
TAF
KLAS 280535Z 2806/2906 18008KT P6SM SCT120
     FM281200 VRB05KT P6SM SCT120
     FM281900 18010KT P6SM VCTS SCT100CB=



000
FTUS45 KVEF 280500
TAFDAG
TAF
KDAG 280535Z 2806/2906 25008KT P6SM VCTS SCT070CB BKN090
     FM280800 25008KT P6SM BKN100
     FM282000 VRB06KT P6SM SCT120=



000
FTUS45 KVEF 280500
TAFLAS
TAF
KLAS 280535Z 2806/2906 18008KT P6SM SCT120
     FM281200 VRB05KT P6SM SCT120
     FM281900 18010KT P6SM VCTS SCT100CB=



000
FTUS45 KVEF 280500
TAFVGT
TAF
KVGT 280535Z 2806/2906 33009KT P6SM SCT120
     FM280900 VRB06KT P6SM SCT120
     FM281900 15010KT P6SM VCTS SCT100CB=



000
FTUS45 KVEF 280300 AAC
TAFDAG
TAF AMD
KDAG 280327Z 2803/2824 21012KT P6SM VCTS SCT100CB BKN150
     FM280400 09012G20KT P6SM VCTS SCT090CB BKN120
     FM280700 22010KT P6SM BKN150
     FM282000 VRB06KT P6SM SCT150=



000
FTUS45 KVEF 280300 AAC
TAFVGT
TAF AMD
KVGT 280322Z 2803/2824 22014G24KT P6SM VCTS BKN100CB
     FM280400 24011KT P6SM VCSH SCT120
     FM280700 VRB06KT P6SM SCT120
     FM281900 15010KT P6SM VCTS SCT100CB=



000
FTUS45 KVEF 280300 AAD
TAFLAS
TAF AMD
KLAS 280319Z 2803/2824 20012G20KT P6SM VCTS BKN090CB
     FM280400 19011KT P6SM VCSH BKN100
     FM280700 19011KT P6SM SCT120
     FM281900 18010KT P6SM VCTS SCT100CB=



000
FTUS45 KVEF 280300 AAD
TAFLAS
TAF AMD
KLAS 280319Z 2803/2824 20012G20KT P6SM VCTS BKN090CB
     FM280400 19011KT P6SM VCSH BKN100
     FM280700 19011KT P6SM SCT120
     FM281900 18010KT P6SM VCTS SCT100CB=



000
FTUS45 KVEF 280200 AAC
TAFLAS
TAF AMD
KLAS 280238Z 2803/2824 16012G20KT P6SM VCTS BKN090CB
      TEMPO 2803/2805 2SM TSRA BKN080CB
     FM280500 19011KT P6SM VCTS SCT100CB
     FM280600 VRB06KT P6SM VCSH SCT120
     FM280700 19011KT P6SM SCT120
     FM281900 18010KT P6SM VCTS SCT100CB=



000
FTUS45 KVEF 280200 AAC
TAFLAS
TAF AMD
KLAS 280238Z 2803/2824 16012G20KT P6SM VCTS BKN090CB
      TEMPO 2803/2805 2SM TSRA BKN080CB
     FM280500 19011KT P6SM VCTS SCT100CB
     FM280600 VRB06KT P6SM VCSH SCT120
     FM280700 19011KT P6SM SCT120
     FM281900 18010KT P6SM VCTS SCT100CB=



000
FTUS45 KVEF 280100 AAB
TAFDAG
TAF AMD
KDAG 280157Z 2802/2824 21015G28KT P6SM VCTS SCT100CB BKN150
     FM280400 25010KT P6SM BKN120
     FM280700 27010KT P6SM BKN150
     FM282000 VRB06KT P6SM SCT150=



000
FTUS45 KVEF 280100 AAB
TAFVGT
TAF AMD
KVGT 280109Z 2801/2824 33012G22KT P6SM VCTS SCT100CB
     FM280200 27011KT P6SM VCTS SCT100CB
     FM280600 VRB06KT P6SM VCSH SCT120
     FM280700 VRB06KT P6SM SCT120
     FM281900 15010KT P6SM VCTS SCT100CB=



000
FTUS45 KVEF 280100 AAA
TAFBIH
TAF AMD
KBIH 280107Z 2801/2824 29011KT P6SM VCTS SCT100CB BKN150
     FM280300 16008KT P6SM SCT100 BKN150
     FM280700 32006KT P6SM BKN150
     FM282100 25011KT P6SM VCSH BKN150=



000
FTUS45 KVEF 280000 AAA
TAFDAG
TAF AMD
KDAG 280044Z 2801/2824 23011KT P6SM VCTS SCT100CB BKN150
     FM280400 25010KT P6SM BKN120
     FM280700 27010KT P6SM BKN150
     FM282000 VRB06KT P6SM SCT150=



000
FTUS45 KVEF 280000 AAB
TAFLAS
TAF AMD
KLAS 280033Z 2801/2824 24012G20KT P6SM VCTS SCT100CB
     FM280400 19011KT P6SM VCTS SCT100CB
     FM280600 VRB06KT P6SM VCSH SCT120
     FM280700 19011KT P6SM SCT120
     FM281900 18010KT P6SM VCTS SCT100CB=



000
FTUS45 KVEF 280000 AAB
TAFLAS
TAF AMD
KLAS 280033Z 2801/2824 24012G20KT P6SM VCTS SCT100CB
     FM280400 19011KT P6SM VCTS SCT100CB
     FM280600 VRB06KT P6SM VCSH SCT120
     FM280700 19011KT P6SM SCT120
     FM281900 18010KT P6SM VCTS SCT100CB=



000
FTUS45 KVEF 272300 AAA
TAFVGT
TAF AMD
KVGT 272341Z 2800/2824 35012G22KT P6SM VCTS SCT100CB
     FM280200 24012G22KT P6SM VCTS SCT100CB
     FM280400 10011KT P6SM VCTS SCT100CB
     FM280600 VRB06KT P6SM VCSH SCT120
     FM280700 VRB06KT P6SM SCT120
     FM281900 15010KT P6SM VCTS SCT100CB=



000
FTUS45 KVEF 272300 AAA
TAFLAS
TAF AMD
KLAS 272339Z 2800/2824 35015G25KT P6SM VCTS SCT100CB
     FM280200 24015G20KT P6SM VCTS SCT100CB
     FM280400 09011KT P6SM VCTS SCT100CB
     FM280600 VRB06KT P6SM VCSH SCT120
     FM280700 19011KT P6SM SCT120
     FM281900 18010KT P6SM VCTS SCT100CB=



000
FTUS45 KVEF 272300 AAA
TAFLAS
TAF AMD
KLAS 272339Z 2800/2824 35015G25KT P6SM VCTS SCT100CB
     FM280200 24015G20KT P6SM VCTS SCT100CB
     FM280400 09011KT P6SM VCTS SCT100CB
     FM280600 VRB06KT P6SM VCSH SCT120
     FM280700 19011KT P6SM SCT120
     FM281900 18010KT P6SM VCTS SCT100CB=



000
FTUS45 KVEF 272300
TAFVGT
TAF
KVGT 272320Z 2800/2824 22012G22KT P6SM VCTS SCT100CB
     FM280200 10011KT P6SM VCTS SCT100CB
     FM280400 VRB06KT P6SM VCSH SCT120
     FM280700 VRB06KT P6SM SCT120
     FM281900 15010KT P6SM VCTS SCT100CB=



000
FTUS45 KVEF 272300
TAFDAG
TAF
KDAG 272320Z 2800/2824 23011KT P6SM VCSH BKN150
     FM280700 27010KT P6SM BKN150
     FM282000 VRB06KT P6SM SCT150=



000
FTUS45 KVEF 272300
TAFLAS
TAF
KLAS 272320Z 2800/2824 24015G25KT P6SM VCTS SCT100CB
     FM280200 09011KT P6SM VCTS SCT100CB
     FM280400 VRB06KT P6SM VCSH SCT120
     FM280700 19011KT P6SM SCT120
     FM281900 18010KT P6SM VCTS SCT100CB=



000
FTUS45 KVEF 272300
TAFBIH
TAF
KBIH 272320Z 2800/2824 VRB15G25KT P6SM VCTS SCT100CB BKN150
     FM280300 16008KT P6SM SCT100 BKN150
     FM280700 32006KT P6SM BKN150
     FM282100 25011KT P6SM VCSH BKN150=



000
FTUS45 KVEF 272300
TAFLAS
TAF
KLAS 272320Z 2800/2824 24015G25KT P6SM VCTS SCT100CB
     FM280200 09011KT P6SM VCTS SCT100CB
     FM280400 VRB06KT P6SM VCSH SCT120
     FM280700 19011KT P6SM SCT120
     FM281900 18010KT P6SM VCTS SCT100CB=



000
FTUS45 KVEF 272300
TAFEED
TAF
KEED 272320Z 2800/2824 20009KT P6SM SCT150
     FM280500 24009KT P6SM SCT150
     FM281200 VRB06KT P6SM SCT150
     FM281800 19011KT P6SM VCTS SCT120CB=



000
FTUS45 KVEF 272100 AAA
TAFBIH
TAF AMD
KBIH 272113Z 2721/2818 26020G30KT P6SM VCSH SCT100
     FM272200 16011KT P6SM VCSH SCT100
     FM280700 32006KT P6SM BKN130=



000
FTUS45 KVEF 272100 AAB
TAFVGT
TAF AMD
KVGT 272111Z 2721/2818 15012G22KT P6SM SCT120
     FM272200 14009KT P6SM VCTS SCT100CB
     FM280300 21010KT P6SM VCSH SCT120
     FM280700 VRB06KT P6SM SCT120=



000
FTUS45 KVEF 272000 AAB
TAFLAS
TAF AMD
KLAS 272046Z 2721/2818 15012G22KT P6SM SCT120
     FM272200 15010KT P6SM VCTS SCT100CB
     FM280300 19011KT P6SM VCSH SCT120
     FM280700 19011KT P6SM SCT120=



000
FTUS45 KVEF 272000 AAB
TAFLAS
TAF AMD
KLAS 272046Z 2721/2818 15012G22KT P6SM SCT120
     FM272200 15010KT P6SM VCTS SCT100CB
     FM280300 19011KT P6SM VCSH SCT120
     FM280700 19011KT P6SM SCT120=



000
FTUS45 KVEF 271900 AAA
TAFVGT
TAF AMD
KVGT 271911Z 2719/2818 14009KT 5SM BLDU SCT120
     FM272200 14009KT P6SM VCTS SCT100CB
     FM280300 21010KT P6SM VCSH SCT120
     FM280700 VRB06KT P6SM SCT120=



000
FTUS45 KVEF 271900 AAA
TAFLAS
TAF AMD
KLAS 271911Z 2719/2818 15012G22KT 5SM BLDU SCT120
     FM272200 18010KT P6SM VCTS SCT100CB
     FM280300 19011KT P6SM VCSH SCT120
     FM280700 19011KT P6SM SCT120=



000
FTUS45 KVEF 271900 AAA
TAFLAS
TAF AMD
KLAS 271911Z 2719/2818 15012G22KT 5SM BLDU SCT120
     FM272200 18010KT P6SM VCTS SCT100CB
     FM280300 19011KT P6SM VCSH SCT120
     FM280700 19011KT P6SM SCT120=



000
FTUS45 KVEF 271700
TAFLAS
TAF
KLAS 271720Z 2718/2818 14007KT P6SM SCT120
     FM272200 18010KT P6SM VCTS SCT100CB
     FM280300 19011KT P6SM VCSH SCT120
     FM280700 19011KT P6SM SCT120=



000
FTUS45 KVEF 271700
TAFBIH
TAF
KBIH 271720Z 2718/2818 VRB06KT P6SM SCT100
     FM272000 16011KT P6SM VCSH SCT100
     FM280700 32006KT P6SM BKN130=



000
FTUS45 KVEF 271700
TAFVGT
TAF
KVGT 271720Z 2718/2818 14009KT P6SM SCT120
     FM272200 14009KT P6SM VCTS SCT100CB
     FM280300 21010KT P6SM VCSH SCT120
     FM280700 VRB06KT P6SM SCT120=



000
FTUS45 KVEF 271700
TAFEED
TAF
KEED 271720Z 2718/2818 20011KT P6SM VCTS SCT120CB
     FM280500 24009KT P6SM VCSH BKN120
     FM281200 VRB06KT P6SM BKN120=



000
FTUS45 KVEF 271700
TAFDAG
TAF
KDAG 271720Z 2718/2818 06008KT P6SM VCTS SCT120CB
     FM280300 23011KT P6SM VCSH BKN120
     FM280700 27010KT P6SM BKN120=



000
FTUS45 KVEF 271700
TAFLAS
TAF
KLAS 271720Z 2718/2818 14007KT P6SM SCT120
     FM272200 18010KT P6SM VCTS SCT100CB
     FM280300 19011KT P6SM VCSH SCT120
     FM280700 19011KT P6SM SCT120=



000
FTUS45 KVEF 271400 AAA
TAFLAS
TAF AMD
KLAS 271438Z 2715/2812 VRB06KT P6SM SCT150 BKN200
     FM271700 14007KT P6SM SCT150 BKN200
     FM272200 21009KT P6SM VCTS SCT100CB BKN200
     FM280300 21011KT P6SM SCT120 BKN200=



000
FTUS45 KVEF 271400 AAA
TAFLAS
TAF AMD
KLAS 271438Z 2715/2812 VRB06KT P6SM SCT150 BKN200
     FM271700 14007KT P6SM SCT150 BKN200
     FM272200 21009KT P6SM VCTS SCT100CB BKN200
     FM280300 21011KT P6SM SCT120 BKN200=



000
FTUS45 KVEF 271300 AAA
TAFEED
TAF AMD
KEED 271352Z 2714/2812 17012KT P6SM BKN150 OVC200
      TEMPO 2715/2716 17015G25KT 3SM BLDU
     FM271800 17009KT P6SM SCT150 BKN200
     FM280100 13010KT P6SM VCTS SCT100CB BKN150
     FM280600 25009KT P6SM SCT120 BKN200=



    US Dept of Commerce
    National Oceanic and Atmospheric Administration
    National Weather Service
    1325 East West Highway
    Silver Spring, MD 20910
    Page Author: NWS Internet Services Team
Disclaimer
Information Quality
Credits
Glossary
Privacy Policy
Freedom of Information Act (FOIA)
About Us
Career Opportunities